sensor_id;sensor_type;location;lat;lon;timestamp;P1;durP1;ratioP1;P2;durP2;ratioP2
52180;SDS011;38158;53.338;6.514;2023-01-24T00:01:55;18.70;;;12.20;;
52180;SDS011;38158;53.338;6.514;2023-01-24T00:04:21;16.27;;;11.73;;
52180;SDS011;38158;53.338;6.514;2023-01-24T00:06:46;18.15;;;12.15;;
52180;SDS011;38158;53.338;6.514;2023-01-24T00:09:12;17.85;;;12.25;;
52180;SDS011;38158;53.338;6.514;2023-01-24T00:11:37;20.00;;;12.85;;
52180;SDS011;38158;53.338;6.514;2023-01-24T00:14:03;18.67;;;12.65;;
52180;SDS011;38158;53.338;6.514;2023-01-24T00:16:29;21.00;;;11.95;;
52180;SDS011;38158;53.338;6.514;2023-01-24T00:18:54;21.67;;;12.85;;
52180;SDS011;38158;53.338;6.514;2023-01-24T00:21:21;19.02;;;12.07;;
52180;SDS011;38158;53.338;6.514;2023-01-24T00:23:49;20.55;;;13.95;;
52180;SDS011;38158;53.338;6.514;2023-01-24T00:26:19;21.42;;;12.85;;
52180;SDS011;38158;53.338;6.514;2023-01-24T00:28:46;19.42;;;13.20;;
52180;SDS011;38158;53.338;6.514;2023-01-24T00:31:12;21.45;;;13.60;;
52180;SDS011;38158;53.338;6.514;2023-01-24T00:33:38;23.33;;;13.90;;
52180;SDS011;38158;53.338;6.514;2023-01-24T00:36:04;23.50;;;14.15;;
52180;SDS011;38158;53.338;6.514;2023-01-24T00:38:30;20.17;;;13.57;;
52180;SDS011;38158;53.338;6.514;2023-01-24T00:40:56;23.35;;;14.38;;
52180;SDS011;38158;53.338;6.514;2023-01-24T00:43:22;19.05;;;13.30;;
52180;SDS011;38158;53.338;6.514;2023-01-24T00:45:48;24.25;;;14.43;;
52180;SDS011;38158;53.338;6.514;2023-01-24T00:48:14;23.45;;;14.55;;
52180;SDS011;38158;53.338;6.514;2023-01-24T00:50:40;22.73;;;15.10;;
52180;SDS011;38158;53.338;6.514;2023-01-24T00:53:06;21.88;;;14.48;;
52180;SDS011;38158;53.338;6.514;2023-01-24T00:55:32;22.55;;;15.02;;
52180;SDS011;38158;53.338;6.514;2023-01-24T00:57:57;22.58;;;14.70;;
52180;SDS011;38158;53.338;6.514;2023-01-24T01:00:23;24.20;;;15.10;;
52180;SDS011;38158;53.338;6.514;2023-01-24T01:02:50;26.52;;;15.25;;
52180;SDS011;38158;53.338;6.514;2023-01-24T01:05:16;24.92;;;16.13;;
52180;SDS011;38158;53.338;6.514;2023-01-24T01:07:42;24.60;;;15.82;;
52180;SDS011;38158;53.338;6.514;2023-01-24T01:10:08;21.73;;;15.18;;
52180;SDS011;38158;53.338;6.514;2023-01-24T01:12:34;25.50;;;15.77;;
52180;SDS011;38158;53.338;6.514;2023-01-24T01:15:00;25.90;;;16.70;;
52180;SDS011;38158;53.338;6.514;2023-01-24T01:17:26;23.00;;;15.13;;
52180;SDS011;38158;53.338;6.514;2023-01-24T01:19:52;30.20;;;16.90;;
52180;SDS011;38158;53.338;6.514;2023-01-24T01:22:18;23.85;;;15.23;;
52180;SDS011;38158;53.338;6.514;2023-01-24T01:24:44;27.08;;;17.10;;
52180;SDS011;38158;53.338;6.514;2023-01-24T01:27:10;25.10;;;16.58;;
52180;SDS011;38158;53.338;6.514;2023-01-24T01:29:36;25.38;;;16.35;;
52180;SDS011;38158;53.338;6.514;2023-01-24T01:32:02;25.58;;;16.80;;
52180;SDS011;38158;53.338;6.514;2023-01-24T01:34:28;28.02;;;16.52;;
52180;SDS011;38158;53.338;6.514;2023-01-24T01:36:53;26.75;;;17.25;;
52180;SDS011;38158;53.338;6.514;2023-01-24T01:39:19;26.90;;;17.27;;
52180;SDS011;38158;53.338;6.514;2023-01-24T01:41:45;27.17;;;17.80;;
52180;SDS011;38158;53.338;6.514;2023-01-24T01:44:22;26.83;;;17.57;;
52180;SDS011;38158;53.338;6.514;2023-01-24T01:47:30;24.58;;;16.55;;
52180;SDS011;38158;53.338;6.514;2023-01-24T01:52:27;26.02;;;16.23;;
52180;SDS011;38158;53.338;6.514;2023-01-24T01:55:05;25.83;;;17.65;;
52180;SDS011;38158;53.338;6.514;2023-01-24T01:57:37;27.65;;;17.48;;
52180;SDS011;38158;53.338;6.514;2023-01-24T02:00:12;24.92;;;16.02;;
52180;SDS011;38158;53.338;6.514;2023-01-24T02:05:11;28.33;;;16.33;;
52180;SDS011;38158;53.338;6.514;2023-01-24T02:07:44;27.00;;;16.88;;
52180;SDS011;38158;53.338;6.514;2023-01-24T02:10:24;26.60;;;16.13;;
52180;SDS011;38158;53.338;6.514;2023-01-24T02:13:11;26.60;;;17.23;;
52180;SDS011;38158;53.338;6.514;2023-01-24T02:15:37;28.83;;;17.42;;
52180;SDS011;38158;53.338;6.514;2023-01-24T02:18:22;23.77;;;15.02;;
52180;SDS011;38158;53.338;6.514;2023-01-24T02:20:48;24.95;;;15.02;;
52180;SDS011;38158;53.338;6.514;2023-01-24T02:28:49;26.58;;;16.15;;
52180;SDS011;38158;53.338;6.514;2023-01-24T02:31:15;25.95;;;16.52;;
52180;SDS011;38158;53.338;6.514;2023-01-24T02:33:41;25.70;;;16.90;;
52180;SDS011;38158;53.338;6.514;2023-01-24T02:36:30;29.50;;;18.00;;
52180;SDS011;38158;53.338;6.514;2023-01-24T02:41:55;28.58;;;17.42;;
52180;SDS011;38158;53.338;6.514;2023-01-24T02:46:53;27.40;;;16.77;;
52180;SDS011;38158;53.338;6.514;2023-01-24T02:49:19;29.13;;;17.20;;
52180;SDS011;38158;53.338;6.514;2023-01-24T02:51:44;26.88;;;16.92;;
52180;SDS011;38158;53.338;6.514;2023-01-24T02:54:29;28.00;;;17.02;;
52180;SDS011;38158;53.338;6.514;2023-01-24T02:56:54;29.30;;;17.38;;
52180;SDS011;38158;53.338;6.514;2023-01-24T02:59:39;30.40;;;17.90;;
52180;SDS011;38158;53.338;6.514;2023-01-24T03:02:04;27.58;;;16.90;;
52180;SDS011;38158;53.338;6.514;2023-01-24T03:04:30;29.73;;;19.02;;
52180;SDS011;38158;53.338;6.514;2023-01-24T03:06:56;30.73;;;18.45;;
52180;SDS011;38158;53.338;6.514;2023-01-24T03:09:21;34.53;;;18.27;;
52180;SDS011;38158;53.338;6.514;2023-01-24T03:12:04;29.65;;;18.15;;
52180;SDS011;38158;53.338;6.514;2023-01-24T03:14:50;29.73;;;17.92;;
52180;SDS011;38158;53.338;6.514;2023-01-24T03:17:35;26.45;;;17.23;;
52180;SDS011;38158;53.338;6.514;2023-01-24T03:20:19;35.67;;;16.45;;
52180;SDS011;38158;53.338;6.514;2023-01-24T03:23:04;25.17;;;15.65;;
52180;SDS011;38158;53.338;6.514;2023-01-24T03:25:52;24.80;;;16.25;;
52180;SDS011;38158;53.338;6.514;2023-01-24T03:28:38;27.05;;;16.73;;
52180;SDS011;38158;53.338;6.514;2023-01-24T03:31:23;30.17;;;17.83;;
52180;SDS011;38158;53.338;6.514;2023-01-24T03:34:07;27.95;;;16.55;;
52180;SDS011;38158;53.338;6.514;2023-01-24T03:36:52;30.02;;;17.17;;
52180;SDS011;38158;53.338;6.514;2023-01-24T03:39:18;23.40;;;15.25;;
52180;SDS011;38158;53.338;6.514;2023-01-24T03:42:02;26.63;;;15.88;;
52180;SDS011;38158;53.338;6.514;2023-01-24T03:44:27;25.33;;;15.98;;
52180;SDS011;38158;53.338;6.514;2023-01-24T03:46:53;25.27;;;15.20;;
52180;SDS011;38158;53.338;6.514;2023-01-24T03:49:19;24.30;;;15.07;;
52180;SDS011;38158;53.338;6.514;2023-01-24T03:52:04;24.17;;;15.80;;
52180;SDS011;38158;53.338;6.514;2023-01-24T03:54:48;22.85;;;15.38;;
52180;SDS011;38158;53.338;6.514;2023-01-24T03:57:14;23.67;;;15.52;;
52180;SDS011;38158;53.338;6.514;2023-01-24T03:59:39;24.00;;;15.85;;
52180;SDS011;38158;53.338;6.514;2023-01-24T04:02:05;25.85;;;16.75;;
52180;SDS011;38158;53.338;6.514;2023-01-24T04:04:31;27.00;;;16.80;;
52180;SDS011;38158;53.338;6.514;2023-01-24T04:07:17;27.02;;;16.35;;
52180;SDS011;38158;53.338;6.514;2023-01-24T04:09:43;27.48;;;17.55;;
52180;SDS011;38158;53.338;6.514;2023-01-24T04:12:08;27.45;;;17.52;;
52180;SDS011;38158;53.338;6.514;2023-01-24T04:14:34;29.45;;;17.92;;
52180;SDS011;38158;53.338;6.514;2023-01-24T04:17:00;28.33;;;17.45;;
52180;SDS011;38158;53.338;6.514;2023-01-24T04:19:25;29.83;;;17.48;;
52180;SDS011;38158;53.338;6.514;2023-01-24T04:21:51;30.30;;;18.55;;
52180;SDS011;38158;53.338;6.514;2023-01-24T04:24:17;29.25;;;17.73;;
52180;SDS011;38158;53.338;6.514;2023-01-24T04:26:42;25.73;;;17.15;;
52180;SDS011;38158;53.338;6.514;2023-01-24T04:29:08;25.15;;;16.65;;
52180;SDS011;38158;53.338;6.514;2023-01-24T04:31:34;28.05;;;17.50;;
52180;SDS011;38158;53.338;6.514;2023-01-24T04:33:59;27.05;;;17.27;;
52180;SDS011;38158;53.338;6.514;2023-01-24T04:36:25;24.50;;;16.10;;
52180;SDS011;38158;53.338;6.514;2023-01-24T04:38:51;27.45;;;15.82;;
52180;SDS011;38158;53.338;6.514;2023-01-24T04:41:17;21.25;;;14.30;;
52180;SDS011;38158;53.338;6.514;2023-01-24T04:43:42;17.73;;;12.88;;
52180;SDS011;38158;53.338;6.514;2023-01-24T04:46:08;22.15;;;14.23;;
52180;SDS011;38158;53.338;6.514;2023-01-24T04:48:34;22.67;;;14.35;;
52180;SDS011;38158;53.338;6.514;2023-01-24T04:51:00;20.85;;;14.02;;
52180;SDS011;38158;53.338;6.514;2023-01-24T04:53:26;25.25;;;15.20;;
52180;SDS011;38158;53.338;6.514;2023-01-24T04:55:54;18.75;;;12.77;;
52180;SDS011;38158;53.338;6.514;2023-01-24T04:58:24;20.88;;;14.27;;
52180;SDS011;38158;53.338;6.514;2023-01-24T05:00:49;20.90;;;13.10;;
52180;SDS011;38158;53.338;6.514;2023-01-24T05:03:15;22.33;;;14.68;;
52180;SDS011;38158;53.338;6.514;2023-01-24T05:05:40;18.58;;;13.10;;
52180;SDS011;38158;53.338;6.514;2023-01-24T05:08:06;22.52;;;13.90;;
52180;SDS011;38158;53.338;6.514;2023-01-24T05:10:32;20.15;;;13.27;;
52180;SDS011;38158;53.338;6.514;2023-01-24T05:12:57;21.10;;;13.80;;
52180;SDS011;38158;53.338;6.514;2023-01-24T05:15:23;18.73;;;12.55;;
52180;SDS011;38158;53.338;6.514;2023-01-24T05:17:49;18.50;;;12.15;;
52180;SDS011;38158;53.338;6.514;2023-01-24T05:20:14;18.45;;;11.77;;
52180;SDS011;38158;53.338;6.514;2023-01-24T05:22:40;17.10;;;11.75;;
52180;SDS011;38158;53.338;6.514;2023-01-24T05:25:06;16.40;;;11.38;;
52180;SDS011;38158;53.338;6.514;2023-01-24T05:27:32;16.80;;;11.27;;
52180;SDS011;38158;53.338;6.514;2023-01-24T05:29:57;15.80;;;11.45;;
52180;SDS011;38158;53.338;6.514;2023-01-24T05:32:23;16.88;;;11.18;;
52180;SDS011;38158;53.338;6.514;2023-01-24T05:34:49;15.65;;;11.65;;
52180;SDS011;38158;53.338;6.514;2023-01-24T05:37:14;16.02;;;11.07;;
52180;SDS011;38158;53.338;6.514;2023-01-24T05:39:40;16.63;;;12.35;;
52180;SDS011;38158;53.338;6.514;2023-01-24T05:42:05;17.08;;;11.32;;
52180;SDS011;38158;53.338;6.514;2023-01-24T05:44:31;18.30;;;12.50;;
52180;SDS011;38158;53.338;6.514;2023-01-24T05:46:57;17.23;;;11.93;;
52180;SDS011;38158;53.338;6.514;2023-01-24T05:49:22;21.05;;;13.40;;
52180;SDS011;38158;53.338;6.514;2023-01-24T05:51:48;19.73;;;13.40;;
52180;SDS011;38158;53.338;6.514;2023-01-24T05:54:14;19.02;;;12.70;;
52180;SDS011;38158;53.338;6.514;2023-01-24T05:56:39;17.85;;;12.65;;
52180;SDS011;38158;53.338;6.514;2023-01-24T05:59:05;18.27;;;12.57;;
52180;SDS011;38158;53.338;6.514;2023-01-24T06:01:31;19.02;;;12.98;;
52180;SDS011;38158;53.338;6.514;2023-01-24T06:03:56;21.00;;;13.25;;
52180;SDS011;38158;53.338;6.514;2023-01-24T06:06:23;20.45;;;13.93;;
52180;SDS011;38158;53.338;6.514;2023-01-24T06:08:50;21.48;;;14.27;;
52180;SDS011;38158;53.338;6.514;2023-01-24T06:11:17;20.88;;;13.90;;
52180;SDS011;38158;53.338;6.514;2023-01-24T06:13:44;25.65;;;17.52;;
52180;SDS011;38158;53.338;6.514;2023-01-24T06:16:12;29.27;;;18.30;;
52180;SDS011;38158;53.338;6.514;2023-01-24T06:18:45;27.15;;;19.02;;
52180;SDS011;38158;53.338;6.514;2023-01-24T06:23:53;26.63;;;17.00;;
52180;SDS011;38158;53.338;6.514;2023-01-24T06:26:19;27.20;;;18.52;;
52180;SDS011;38158;53.338;6.514;2023-01-24T06:28:45;31.55;;;20.85;;
52180;SDS011;38158;53.338;6.514;2023-01-24T06:34:20;34.60;;;22.92;;
52180;SDS011;38158;53.338;6.514;2023-01-24T06:36:56;37.90;;;24.55;;
52180;SDS011;38158;53.338;6.514;2023-01-24T06:39:32;36.10;;;23.00;;
52180;SDS011;38158;53.338;6.514;2023-01-24T06:41:59;36.05;;;24.48;;
52180;SDS011;38158;53.338;6.514;2023-01-24T06:44:25;32.45;;;21.98;;
52180;SDS011;38158;53.338;6.514;2023-01-24T06:46:51;31.77;;;20.85;;
52180;SDS011;38158;53.338;6.514;2023-01-24T06:49:17;32.88;;;21.58;;
52180;SDS011;38158;53.338;6.514;2023-01-24T06:51:42;32.30;;;21.17;;
52180;SDS011;38158;53.338;6.514;2023-01-24T06:54:15;33.78;;;21.77;;
52180;SDS011;38158;53.338;6.514;2023-01-24T06:56:41;37.13;;;22.73;;
52180;SDS011;38158;53.338;6.514;2023-01-24T06:59:06;37.95;;;23.15;;
52180;SDS011;38158;53.338;6.514;2023-01-24T07:01:32;35.40;;;22.83;;
52180;SDS011;38158;53.338;6.514;2023-01-24T07:03:58;31.20;;;19.92;;
52180;SDS011;38158;53.338;6.514;2023-01-24T07:06:23;30.58;;;19.98;;
52180;SDS011;38158;53.338;6.514;2023-01-24T07:08:50;30.90;;;19.80;;
52180;SDS011;38158;53.338;6.514;2023-01-24T07:11:15;28.23;;;19.00;;
52180;SDS011;38158;53.338;6.514;2023-01-24T07:13:41;29.00;;;19.67;;
52180;SDS011;38158;53.338;6.514;2023-01-24T07:16:07;31.40;;;18.98;;
52180;SDS011;38158;53.338;6.514;2023-01-24T07:18:32;26.60;;;17.83;;
52180;SDS011;38158;53.338;6.514;2023-01-24T07:21:03;29.48;;;18.75;;
52180;SDS011;38158;53.338;6.514;2023-01-24T07:23:30;30.15;;;19.48;;
52180;SDS011;38158;53.338;6.514;2023-01-24T07:28:23;34.83;;;19.25;;
52180;SDS011;38158;53.338;6.514;2023-01-24T07:30:49;33.75;;;19.88;;
52180;SDS011;38158;53.338;6.514;2023-01-24T07:33:18;28.20;;;19.15;;
52180;SDS011;38158;53.338;6.514;2023-01-24T07:35:43;31.67;;;19.58;;
52180;SDS011;38158;53.338;6.514;2023-01-24T07:38:09;29.25;;;18.58;;
52180;SDS011;38158;53.338;6.514;2023-01-24T07:40:37;31.05;;;18.95;;
52180;SDS011;38158;53.338;6.514;2023-01-24T07:43:03;28.13;;;19.13;;
52180;SDS011;38158;53.338;6.514;2023-01-24T07:45:30;29.85;;;19.40;;
52180;SDS011;38158;53.338;6.514;2023-01-24T07:47:58;31.40;;;20.25;;
52180;SDS011;38158;53.338;6.514;2023-01-24T07:50:24;28.40;;;18.33;;
52180;SDS011;38158;53.338;6.514;2023-01-24T07:52:51;29.92;;;18.13;;
52180;SDS011;38158;53.338;6.514;2023-01-24T07:55:18;29.92;;;19.38;;
52180;SDS011;38158;53.338;6.514;2023-01-24T07:57:44;31.90;;;19.33;;
52180;SDS011;38158;53.338;6.514;2023-01-24T08:00:10;32.40;;;19.98;;
52180;SDS011;38158;53.338;6.514;2023-01-24T08:02:36;30.35;;;19.42;;
52180;SDS011;38158;53.338;6.514;2023-01-24T08:05:02;31.10;;;20.23;;
52180;SDS011;38158;53.338;6.514;2023-01-24T08:07:28;29.90;;;19.25;;
52180;SDS011;38158;53.338;6.514;2023-01-24T08:09:53;30.65;;;20.08;;
52180;SDS011;38158;53.338;6.514;2023-01-24T08:12:20;30.95;;;19.70;;
52180;SDS011;38158;53.338;6.514;2023-01-24T08:14:46;30.70;;;19.15;;
52180;SDS011;38158;53.338;6.514;2023-01-24T08:17:11;31.70;;;18.98;;
52180;SDS011;38158;53.338;6.514;2023-01-24T08:19:37;31.50;;;19.45;;
52180;SDS011;38158;53.338;6.514;2023-01-24T08:22:04;28.67;;;18.98;;
52180;SDS011;38158;53.338;6.514;2023-01-24T08:24:30;26.73;;;18.95;;
52180;SDS011;38158;53.338;6.514;2023-01-24T08:26:56;27.95;;;16.75;;
52180;SDS011;38158;53.338;6.514;2023-01-24T08:29:23;29.45;;;19.08;;
52180;SDS011;38158;53.338;6.514;2023-01-24T08:31:48;30.90;;;19.50;;
52180;SDS011;38158;53.338;6.514;2023-01-24T08:34:14;33.30;;;19.63;;
52180;SDS011;38158;53.338;6.514;2023-01-24T08:36:40;30.27;;;19.42;;
52180;SDS011;38158;53.338;6.514;2023-01-24T08:39:05;28.23;;;18.30;;
52180;SDS011;38158;53.338;6.514;2023-01-24T08:41:31;28.25;;;18.38;;
52180;SDS011;38158;53.338;6.514;2023-01-24T08:43:57;26.92;;;16.60;;
52180;SDS011;38158;53.338;6.514;2023-01-24T08:46:22;24.92;;;15.82;;
52180;SDS011;38158;53.338;6.514;2023-01-24T08:48:48;22.20;;;14.23;;
52180;SDS011;38158;53.338;6.514;2023-01-24T08:51:14;20.75;;;13.82;;
52180;SDS011;38158;53.338;6.514;2023-01-24T08:53:39;22.15;;;14.98;;
52180;SDS011;38158;53.338;6.514;2023-01-24T08:56:05;22.52;;;14.15;;
52180;SDS011;38158;53.338;6.514;2023-01-24T08:58:32;22.85;;;14.52;;
52180;SDS011;38158;53.338;6.514;2023-01-24T09:00:59;23.17;;;15.67;;
52180;SDS011;38158;53.338;6.514;2023-01-24T09:03:25;26.67;;;16.10;;
52180;SDS011;38158;53.338;6.514;2023-01-24T09:05:55;21.05;;;14.68;;
52180;SDS011;38158;53.338;6.514;2023-01-24T09:08:24;20.58;;;13.63;;
52180;SDS011;38158;53.338;6.514;2023-01-24T09:10:50;23.90;;;14.75;;
52180;SDS011;38158;53.338;6.514;2023-01-24T09:13:16;24.27;;;15.65;;
52180;SDS011;38158;53.338;6.514;2023-01-24T09:15:42;23.90;;;15.52;;
52180;SDS011;38158;53.338;6.514;2023-01-24T09:18:08;22.63;;;14.17;;
52180;SDS011;38158;53.338;6.514;2023-01-24T09:20:34;20.08;;;14.23;;
52180;SDS011;38158;53.338;6.514;2023-01-24T09:23:07;22.40;;;14.05;;
52180;SDS011;38158;53.338;6.514;2023-01-24T09:25:34;21.38;;;13.35;;
52180;SDS011;38158;53.338;6.514;2023-01-24T09:28:00;21.25;;;13.18;;
52180;SDS011;38158;53.338;6.514;2023-01-24T09:30:25;21.63;;;14.40;;
52180;SDS011;38158;53.338;6.514;2023-01-24T09:32:51;21.33;;;13.13;;
52180;SDS011;38158;53.338;6.514;2023-01-24T09:35:17;20.25;;;13.57;;
52180;SDS011;38158;53.338;6.514;2023-01-24T09:37:43;22.80;;;14.57;;
52180;SDS011;38158;53.338;6.514;2023-01-24T09:40:20;21.30;;;14.63;;
52180;SDS011;38158;53.338;6.514;2023-01-24T09:43:06;23.88;;;13.80;;
52180;SDS011;38158;53.338;6.514;2023-01-24T09:45:49;20.52;;;12.32;;
52180;SDS011;38158;53.338;6.514;2023-01-24T09:48:21;22.13;;;13.93;;
52180;SDS011;38158;53.338;6.514;2023-01-24T09:51:30;22.10;;;14.55;;
52180;SDS011;38158;53.338;6.514;2023-01-24T09:56:12;21.80;;;14.43;;
52180;SDS011;38158;53.338;6.514;2023-01-24T10:01:50;22.10;;;14.40;;
52180;SDS011;38158;53.338;6.514;2023-01-24T10:06:49;21.10;;;13.35;;
52180;SDS011;38158;53.338;6.514;2023-01-24T10:12:36;17.52;;;11.43;;
52180;SDS011;38158;53.338;6.514;2023-01-24T10:18:14;19.25;;;12.73;;
52180;SDS011;38158;53.338;6.514;2023-01-24T10:23:53;19.85;;;11.93;;
52180;SDS011;38158;53.338;6.514;2023-01-24T10:26:32;18.08;;;11.93;;
52180;SDS011;38158;53.338;6.514;2023-01-24T10:37:06;19.85;;;13.00;;
52180;SDS011;38158;53.338;6.514;2023-01-24T10:39:42;20.08;;;12.77;;
52180;SDS011;38158;53.338;6.514;2023-01-24T10:44:45;19.67;;;12.48;;
52180;SDS011;38158;53.338;6.514;2023-01-24T10:49:40;17.10;;;11.63;;
52180;SDS011;38158;53.338;6.514;2023-01-24T10:57:30;19.23;;;11.90;;
52180;SDS011;38158;53.338;6.514;2023-01-24T11:00:03;21.73;;;12.48;;
52180;SDS011;38158;53.338;6.514;2023-01-24T11:05:09;18.80;;;12.10;;
52180;SDS011;38158;53.338;6.514;2023-01-24T11:07:37;18.20;;;11.30;;
52180;SDS011;38158;53.338;6.514;2023-01-24T11:13:00;19.05;;;11.80;;
52180;SDS011;38158;53.338;6.514;2023-01-24T11:15:31;19.70;;;12.20;;
52180;SDS011;38158;53.338;6.514;2023-01-24T11:17:59;18.60;;;11.93;;
52180;SDS011;38158;53.338;6.514;2023-01-24T11:20:30;16.77;;;11.05;;
52180;SDS011;38158;53.338;6.514;2023-01-24T11:23:16;18.52;;;12.05;;
52180;SDS011;38158;53.338;6.514;2023-01-24T11:25:53;16.88;;;11.60;;
52180;SDS011;38158;53.338;6.514;2023-01-24T11:30:58;18.73;;;11.88;;
52180;SDS011;38158;53.338;6.514;2023-01-24T11:36:11;18.20;;;12.35;;
52180;SDS011;38158;53.338;6.514;2023-01-24T11:38:49;21.67;;;13.27;;
52180;SDS011;38158;53.338;6.514;2023-01-24T11:44:14;18.90;;;12.68;;
52180;SDS011;38158;53.338;6.514;2023-01-24T12:08:23;20.42;;;13.07;;
52180;SDS011;38158;53.338;6.514;2023-01-24T12:16:41;20.63;;;13.95;;
52180;SDS011;38158;53.338;6.514;2023-01-24T12:22:18;23.42;;;13.88;;
52180;SDS011;38158;53.338;6.514;2023-01-24T12:25:25;22.23;;;14.70;;
52180;SDS011;38158;53.338;6.514;2023-01-24T12:27:53;22.65;;;15.15;;
52180;SDS011;38158;53.338;6.514;2023-01-24T12:30:34;32.58;;;15.15;;
52180;SDS011;38158;53.338;6.514;2023-01-24T12:39:03;21.90;;;14.93;;
52180;SDS011;38158;53.338;6.514;2023-01-24T12:41:36;24.65;;;16.05;;
52180;SDS011;38158;53.338;6.514;2023-01-24T12:44:23;39.97;;;17.83;;
52180;SDS011;38158;53.338;6.514;2023-01-24T12:47:11;26.88;;;17.85;;
52180;SDS011;38158;53.338;6.514;2023-01-24T12:52:29;28.23;;;17.95;;
52180;SDS011;38158;53.338;6.514;2023-01-24T12:55:35;25.92;;;17.88;;
52180;SDS011;38158;53.338;6.514;2023-01-24T13:09:00;21.25;;;13.65;;
52180;SDS011;38158;53.338;6.514;2023-01-24T13:11:43;31.92;;;16.83;;
52180;SDS011;38158;53.338;6.514;2023-01-24T13:33:19;27.98;;;19.00;;
52180;SDS011;38158;53.338;6.514;2023-01-24T13:35:52;30.83;;;19.15;;
52180;SDS011;38158;53.338;6.514;2023-01-24T13:40:55;32.38;;;19.85;;
52180;SDS011;38158;53.338;6.514;2023-01-24T13:49:44;29.13;;;18.80;;
52180;SDS011;38158;53.338;6.514;2023-01-24T13:52:35;28.83;;;19.48;;
52180;SDS011;38158;53.338;6.514;2023-01-24T13:57:45;27.25;;;17.85;;
52180;SDS011;38158;53.338;6.514;2023-01-24T14:00:14;29.90;;;18.63;;
52180;SDS011;38158;53.338;6.514;2023-01-24T14:10:51;27.65;;;17.30;;
52180;SDS011;38158;53.338;6.514;2023-01-24T14:13:43;30.48;;;18.60;;
52180;SDS011;38158;53.338;6.514;2023-01-24T14:21:35;28.23;;;16.83;;
52180;SDS011;38158;53.338;6.514;2023-01-24T14:26:55;29.30;;;18.90;;
52180;SDS011;38158;53.338;6.514;2023-01-24T14:29:26;28.77;;;17.77;;
52180;SDS011;38158;53.338;6.514;2023-01-24T14:32:06;27.48;;;17.38;;
52180;SDS011;38158;53.338;6.514;2023-01-24T14:34:48;25.67;;;16.90;;
52180;SDS011;38158;53.338;6.514;2023-01-24T14:37:24;27.33;;;16.92;;
52180;SDS011;38158;53.338;6.514;2023-01-24T14:39:52;23.92;;;15.48;;
52180;SDS011;38158;53.338;6.514;2023-01-24T14:42:33;23.30;;;15.98;;
52180;SDS011;38158;53.338;6.514;2023-01-24T14:44:59;27.92;;;16.50;;
52180;SDS011;38158;53.338;6.514;2023-01-24T14:47:26;26.20;;;16.95;;
52180;SDS011;38158;53.338;6.514;2023-01-24T14:49:58;24.05;;;15.93;;
52180;SDS011;38158;53.338;6.514;2023-01-24T14:52:31;27.92;;;16.58;;
52180;SDS011;38158;53.338;6.514;2023-01-24T14:55:00;28.27;;;17.15;;
52180;SDS011;38158;53.338;6.514;2023-01-24T14:57:46;25.00;;;16.70;;
52180;SDS011;38158;53.338;6.514;2023-01-24T15:02:38;30.63;;;18.92;;
52180;SDS011;38158;53.338;6.514;2023-01-24T15:05:22;25.52;;;16.85;;
52180;SDS011;38158;53.338;6.514;2023-01-24T15:07:48;27.83;;;18.02;;
52180;SDS011;38158;53.338;6.514;2023-01-24T15:10:13;29.67;;;19.23;;
52180;SDS011;38158;53.338;6.514;2023-01-24T15:12:40;28.73;;;17.60;;
52180;SDS011;38158;53.338;6.514;2023-01-24T15:15:06;29.73;;;17.73;;
52180;SDS011;38158;53.338;6.514;2023-01-24T15:17:43;27.08;;;17.33;;
52180;SDS011;38158;53.338;6.514;2023-01-24T15:20:16;30.33;;;17.98;;
52180;SDS011;38158;53.338;6.514;2023-01-24T15:22:48;30.13;;;19.13;;
52180;SDS011;38158;53.338;6.514;2023-01-24T15:27:56;31.63;;;18.98;;
52180;SDS011;38158;53.338;6.514;2023-01-24T15:37:59;27.10;;;17.52;;
52180;SDS011;38158;53.338;6.514;2023-01-24T15:40:51;26.85;;;16.77;;
52180;SDS011;38158;53.338;6.514;2023-01-24T15:54:34;29.88;;;17.92;;
52180;SDS011;38158;53.338;6.514;2023-01-24T15:57:06;30.15;;;19.38;;
52180;SDS011;38158;53.338;6.514;2023-01-24T15:59:38;30.52;;;16.92;;
52180;SDS011;38158;53.338;6.514;2023-01-24T16:02:10;25.73;;;17.40;;
52180;SDS011;38158;53.338;6.514;2023-01-24T16:04:37;27.98;;;17.38;;
52180;SDS011;38158;53.338;6.514;2023-01-24T16:07:03;27.83;;;17.63;;
52180;SDS011;38158;53.338;6.514;2023-01-24T16:09:29;27.73;;;17.70;;
52180;SDS011;38158;53.338;6.514;2023-01-24T16:11:54;24.65;;;15.75;;
52180;SDS011;38158;53.338;6.514;2023-01-24T16:14:22;27.88;;;17.98;;
52180;SDS011;38158;53.338;6.514;2023-01-24T16:16:49;27.00;;;17.08;;
52180;SDS011;38158;53.338;6.514;2023-01-24T16:19:19;23.15;;;15.82;;
52180;SDS011;38158;53.338;6.514;2023-01-24T16:21:46;27.88;;;18.20;;
52180;SDS011;38158;53.338;6.514;2023-01-24T16:24:13;28.27;;;17.70;;
52180;SDS011;38158;53.338;6.514;2023-01-24T16:26:41;24.75;;;16.02;;
52180;SDS011;38158;53.338;6.514;2023-01-24T16:29:13;26.08;;;17.13;;
52180;SDS011;38158;53.338;6.514;2023-01-24T16:31:41;27.42;;;16.40;;
52180;SDS011;38158;53.338;6.514;2023-01-24T16:34:07;27.85;;;17.13;;
52180;SDS011;38158;53.338;6.514;2023-01-24T16:36:33;27.60;;;17.25;;
52180;SDS011;38158;53.338;6.514;2023-01-24T16:39:00;28.23;;;16.87;;
52180;SDS011;38158;53.338;6.514;2023-01-24T16:41:26;25.15;;;17.15;;
52180;SDS011;38158;53.338;6.514;2023-01-24T16:43:53;27.13;;;17.00;;
52180;SDS011;38158;53.338;6.514;2023-01-24T16:46:19;27.05;;;17.83;;
52180;SDS011;38158;53.338;6.514;2023-01-24T16:48:46;28.50;;;17.27;;
52180;SDS011;38158;53.338;6.514;2023-01-24T16:51:13;27.50;;;17.25;;
52180;SDS011;38158;53.338;6.514;2023-01-24T16:56:05;30.67;;;18.45;;
52180;SDS011;38158;53.338;6.514;2023-01-24T16:58:31;29.27;;;18.70;;
52180;SDS011;38158;53.338;6.514;2023-01-24T17:00:57;28.13;;;17.10;;
52180;SDS011;38158;53.338;6.514;2023-01-24T17:03:23;28.60;;;18.65;;
52180;SDS011;38158;53.338;6.514;2023-01-24T17:05:49;31.23;;;18.85;;
52180;SDS011;38158;53.338;6.514;2023-01-24T17:08:14;29.02;;;17.88;;
52180;SDS011;38158;53.338;6.514;2023-01-24T17:10:41;28.08;;;18.20;;
52180;SDS011;38158;53.338;6.514;2023-01-24T17:13:07;27.13;;;18.58;;
52180;SDS011;38158;53.338;6.514;2023-01-24T17:15:37;28.70;;;18.45;;
52180;SDS011;38158;53.338;6.514;2023-01-24T17:18:03;26.60;;;18.58;;
52180;SDS011;38158;53.338;6.514;2023-01-24T17:20:30;29.10;;;19.05;;
52180;SDS011;38158;53.338;6.514;2023-01-24T17:22:57;28.30;;;19.30;;
52180;SDS011;38158;53.338;6.514;2023-01-24T17:25:28;29.55;;;20.02;;
52180;SDS011;38158;53.338;6.514;2023-01-24T17:27:55;30.75;;;20.50;;
52180;SDS011;38158;53.338;6.514;2023-01-24T17:30:21;32.55;;;22.23;;
52180;SDS011;38158;53.338;6.514;2023-01-24T17:32:47;33.05;;;22.83;;
52180;SDS011;38158;53.338;6.514;2023-01-24T17:35:13;30.42;;;21.33;;
52180;SDS011;38158;53.338;6.514;2023-01-24T17:37:39;32.33;;;20.60;;
52180;SDS011;38158;53.338;6.514;2023-01-24T17:40:05;32.70;;;21.90;;
52180;SDS011;38158;53.338;6.514;2023-01-24T17:42:31;30.30;;;20.80;;
52180;SDS011;38158;53.338;6.514;2023-01-24T17:44:58;31.88;;;21.05;;
52180;SDS011;38158;53.338;6.514;2023-01-24T17:47:24;30.13;;;21.27;;
52180;SDS011;38158;53.338;6.514;2023-01-24T17:49:52;31.92;;;20.80;;
52180;SDS011;38158;53.338;6.514;2023-01-24T17:52:18;28.63;;;19.58;;